Time;durP1;ratioP1;P1;durP2;ratioP2;P2;SDS_P1;SDS_P2;PMS_P1;PMS_P2;Temp;Humidity;BMP_temperature;BMP_pressure;BME280_temperature;BME280_humidity;BME280_pressure;Samples;Min_cycle;Max_cycle;Signal;HPM_P1;HPM_P2
2022/10/11 00:00:51;;;;;;;27.98;3.10;;;;;;;9.13;93.51;102382.06;5040047;28;20541;-38
2022/10/11 00:03:16;;;;;;;29.83;3.45;;;;;;;9.08;93.59;102387.84;5053406;28;20068;-38
2022/10/11 00:05:43;;;;;;;24.63;2.53;;;;;;;9.04;93.72;102378.38;5052581;28;20059;-38
2022/10/11 00:08:10;;;;;;;24.65;2.42;;;;;;;9.01;93.75;102387.53;5051861;28;20048;-38
2022/10/11 00:10:35;;;;;;;26.08;2.53;;;;;;;8.97;94.24;102388.78;5051444;28;20051;-38
2022/10/11 00:13:01;;;;;;;15.18;2.25;;;;;;;8.94;94.13;102389.03;5051698;28;20029;-38
2022/10/11 00:15:26;;;;;;;15.35;2.35;;;;;;;8.91;94.30;102393.84;5047569;28;20121;-39
2022/10/11 00:17:51;;;;;;;20.10;2.53;;;;;;;8.88;94.52;102392.28;5043475;28;20503;-37
2022/10/11 00:20:17;;;;;;;18.50;2.80;;;;;;;8.84;94.72;102404.25;5052835;28;20045;-39
2022/10/11 00:22:43;;;;;;;17.15;2.63;;;;;;;8.81;94.98;102403.66;5053073;28;20028;-37
2022/10/11 00:25:10;;;;;;;19.95;2.85;;;;;;;8.77;95.27;102400.41;5043827;28;20432;-38
2022/10/11 00:27:35;;;;;;;20.52;2.03;;;;;;;8.72;95.33;102402.63;5052846;28;20033;-37
2022/10/11 00:30:01;;;;;;;13.45;2.00;;;;;;;8.66;95.86;102400.47;5052357;28;20396;-38
2022/10/11 00:32:26;;;;;;;16.15;1.83;;;;;;;8.60;95.82;102393.78;5044211;28;20064;-37
2022/10/11 00:34:52;;;;;;;25.23;2.38;;;;;;;8.54;96.12;102400.53;5052603;28;20537;-39
2022/10/11 00:37:18;;;;;;;17.50;1.85;;;;;;;8.52;96.60;102402.50;5051766;28;20413;-38
2022/10/11 00:39:43;;;;;;;20.70;2.42;;;;;;;8.48;96.71;102408.28;5052514;28;20025;-39
2022/10/11 00:42:13;;;;;;;14.35;1.83;;;;;;;8.45;96.88;102414.75;5052486;28;20326;-38
2022/10/11 00:44:42;;;;;;;21.00;2.40;;;;;;;8.40;97.04;102416.09;5052363;28;20427;-38
2022/10/11 00:47:14;;;;;;;18.55;1.73;;;;;;;8.41;97.27;102423.16;5051001;28;20388;-38
2022/10/11 00:49:55;;;;;;;12.63;1.63;;;;;;;8.38;97.20;102408.16;5062820;28;20052;-38
2022/10/11 00:52:34;;;;;;;11.02;1.80;;;;;;;8.34;97.53;102417.44;5038916;28;20498;-38
2022/10/11 00:55:13;;;;;;;20.75;2.60;;;;;;;8.33;97.70;102416.56;5050194;28;20033;-38
2022/10/11 00:57:41;;;;;;;22.15;2.33;;;;;;;8.26;97.56;102415.38;5049650;28;20029;-38
2022/10/11 01:00:10;;;;;;;16.23;2.63;;;;;;;8.24;97.79;102411.13;5036168;28;20061;-38
2022/10/11 01:02:35;;;;;;;23.20;2.17;;;;;;;8.20;98.05;102420.41;5034355;28;20424;-38
2022/10/11 01:05:01;;;;;;;22.48;1.90;;;;;;;8.17;98.01;102415.31;5034688;28;20037;-38
2022/10/11 01:07:30;;;;;;;18.45;2.20;;;;;;;8.14;98.16;102421.78;5030880;28;20033;-38
2022/10/11 01:09:56;;;;;;;21.02;1.80;;;;;;;8.11;98.29;102422.88;5032052;28;20493;-38
2022/10/11 01:12:23;;;;;;;19.08;1.90;;;;;;;8.10;98.96;102421.16;5032423;28;20096;-39
2022/10/11 01:14:49;;;;;;;23.00;3.10;;;;;;;8.07;98.58;102420.59;5036221;28;20033;-38
2022/10/11 01:17:38;;;;;;;46.97;2.78;;;;;;;8.05;98.94;102427.91;5039962;28;20072;-37
2022/10/11 01:20:30;;;;;;;20.80;1.92;;;;;;;8.02;99.36;102431.69;5043754;28;20043;-39
2022/10/11 01:23:17;;;;;;;24.58;2.88;;;;;;;8.00;99.29;102430.94;5054916;28;20033;-39
2022/10/11 01:26:21;;;;;;;14.63;1.85;;;;;;;8.03;99.20;102435.22;5041844;28;20490;-38
2022/10/11 01:29:08;;;;;;;13.70;1.70;;;;;;;8.05;99.84;102436.78;5048999;28;20040;-38
2022/10/11 01:31:40;;;;;;;14.50;2.00;;;;;;;8.06;100.00;102430.47;5036626;28;20084;-38
2022/10/11 01:34:29;;;;;;;19.98;2.53;;;;;;;8.10;100.00;102433.72;5015279;28;20362;-38
2022/10/11 01:37:04;;;;;;;22.63;2.50;;;;;;;8.11;100.00;102438.13;5041588;28;20029;-39
2022/10/11 01:39:35;;;;;;;21.25;2.42;;;;;;;8.11;100.00;102444.34;5051432;28;20033;-39
2022/10/11 01:42:02;;;;;;;16.00;2.80;;;;;;;8.11;100.00;102446.19;5050020;28;20032;-39
2022/10/11 01:44:29;;;;;;;13.82;2.13;;;;;;;8.12;100.00;102440.69;5033689;28;20025;-39
2022/10/11 01:46:54;;;;;;;17.25;2.10;;;;;;;8.14;100.00;102433.34;5030117;28;20045;-39
2022/10/11 01:49:20;;;;;;;19.30;2.88;;;;;;;8.17;100.00;102437.63;5045469;28;20029;-39
2022/10/11 01:51:47;;;;;;;21.42;2.33;;;;;;;8.17;100.00;102442.13;5030553;28;20067;-42
2022/10/11 01:54:25;;;;;;;15.27;2.20;;;;;;;8.17;100.00;102447.50;5047752;28;20025;-39
2022/10/11 01:57:18;;;;;;;19.77;2.60;;;;;;;8.14;99.88;102444.09;5034131;28;20037;-38
2022/10/11 01:59:52;;;;;;;15.20;2.38;;;;;;;8.08;99.70;102444.59;5040778;28;20025;-38
2022/10/11 02:02:41;;;;;;;17.92;2.47;;;;;;;8.06;99.71;102454.59;5045306;28;20043;-38
2022/10/11 02:05:09;;;;;;;19.77;2.28;;;;;;;8.04;99.97;102443.13;5051180;28;20029;-39
2022/10/11 02:07:52;;;;;;;17.00;2.33;;;;;;;8.05;100.00;102443.97;5055013;22;20057;-42
2022/10/11 02:10:27;;;;;;;11.77;1.73;;;;;;;8.08;100.00;102449.09;5029736;28;20151;-42
2022/10/11 02:13:15;;;;;;;17.15;3.33;;;;;;;8.09;100.00;102446.28;5030709;28;20060;-42
2022/10/11 02:15:42;;;;;;;28.17;3.30;;;;;;;8.16;100.00;102443.09;5029263;28;20044;-42
2022/10/11 02:18:11;;;;;;;20.45;2.60;;;;;;;8.23;100.00;102433.56;5030556;28;20022;-42
2022/10/11 02:20:39;;;;;;;14.43;2.55;;;;;;;8.25;100.00;102434.31;5028562;28;20045;-42
2022/10/11 02:23:35;;;;;;;13.80;2.63;;;;;;;8.31;100.00;102445.34;5029440;28;20036;-42
2022/10/11 02:26:04;;;;;;;19.20;2.25;;;;;;;8.36;100.00;102436.94;5021601;28;20049;-41
2022/10/11 02:28:32;;;;;;;13.40;2.70;;;;;;;8.35;100.00;102435.25;5029398;28;20034;-42
2022/10/11 02:30:59;;;;;;;22.40;2.13;;;;;;;8.32;100.00;102428.31;5029192;28;20465;-43
2022/10/11 02:33:34;;;;;;;21.03;2.30;;;;;;;8.30;99.75;102430.25;5030629;28;20504;-41
2022/10/11 02:36:06;;;;;;;28.23;3.78;;;;;;;8.27;99.97;102435.03;5029132;28;20513;-41
2022/10/11 02:38:39;;;;;;;15.32;2.40;;;;;;;8.22;100.00;102439.94;5030218;28;20037;-42
2022/10/11 02:41:10;;;;;;;23.63;2.55;;;;;;;8.16;99.74;102440.41;5029198;28;20498;-43
2022/10/11 02:43:40;;;;;;;27.98;2.65;;;;;;;8.10;99.81;102441.78;5028622;28;20099;-43
2022/10/11 02:46:06;;;;;;;28.00;2.38;;;;;;;8.07;100.00;102445.56;5029043;28;20025;-42
2022/10/11 02:48:32;;;;;;;17.63;2.08;;;;;;;8.06;100.00;102441.19;5029057;28;20025;-42
2022/10/11 02:50:58;;;;;;;19.27;2.35;;;;;;;8.03;100.00;102441.44;5028467;28;20530;-42
2022/10/11 02:53:24;;;;;;;17.50;2.38;;;;;;;8.01;100.00;102446.06;5030049;28;20045;-42
2022/10/11 02:55:51;;;;;;;19.45;2.30;;;;;;;7.99;100.00;102445.34;5030225;28;20040;-42
2022/10/11 02:58:16;;;;;;;20.98;2.63;;;;;;;7.99;100.00;102445.34;5030336;28;20022;-43
2022/10/11 03:00:42;;;;;;;20.95;2.53;;;;;;;7.94;100.00;102444.88;5029886;28;20407;-42
2022/10/11 03:03:08;;;;;;;19.10;3.72;;;;;;;7.91;100.00;102453.16;5030343;28;20030;-42
2022/10/11 03:05:39;;;;;;;26.30;2.70;;;;;;;7.90;100.00;102448.78;5029166;28;20064;-43
2022/10/11 03:08:06;;;;;;;16.00;2.10;;;;;;;7.87;100.00;102447.22;5029706;28;20055;-41
2022/10/11 03:10:32;;;;;;;17.17;2.53;;;;;;;7.83;100.00;102451.09;5029856;28;20028;-42
2022/10/11 03:12:58;;;;;;;24.92;2.60;;;;;;;7.80;100.00;102461.22;5029691;28;20120;-43
2022/10/11 03:15:23;;;;;;;21.33;2.38;;;;;;;7.79;100.00;102462.19;5029671;28;20475;-42
2022/10/11 03:17:48;;;;;;;18.65;2.67;;;;;;;7.74;100.00;102464.38;5029784;28;20552;-42
2022/10/11 03:20:14;;;;;;;19.00;2.75;;;;;;;7.71;100.00;102457.44;5029825;28;20499;-43
2022/10/11 03:22:39;;;;;;;12.18;2.63;;;;;;;7.69;100.00;102449.53;5029874;28;20021;-42
2022/10/11 03:25:05;;;;;;;19.67;2.25;;;;;;;7.67;100.00;102454.16;5029686;28;20117;-42
2022/10/11 03:27:31;;;;;;;23.00;2.85;;;;;;;7.63;100.00;102450.03;5029871;28;20025;-42
2022/10/11 03:29:57;;;;;;;21.98;2.40;;;;;;;7.60;100.00;102461.00;5029507;28;20037;-42
2022/10/11 03:32:23;;;;;;;24.73;3.25;;;;;;;7.57;100.00;102458.56;5031774;28;20063;-42
2022/10/11 03:34:48;;;;;;;16.83;2.75;;;;;;;7.55;100.00;102454.31;5032727;28;20268;-42
2022/10/11 03:37:13;;;;;;;32.47;2.60;;;;;;;7.53;100.00;102459.81;5033846;28;20533;-41
2022/10/11 03:39:39;;;;;;;13.40;2.13;;;;;;;7.51;100.00;102458.22;5033313;28;20403;-42
2022/10/11 03:42:04;;;;;;;17.90;2.40;;;;;;;7.46;100.00;102458.56;5033698;28;20033;-42
2022/10/11 03:44:29;;;;;;;17.75;2.35;;;;;;;7.42;100.00;102454.41;5033464;28;20556;-41
2022/10/11 03:46:55;;;;;;;24.75;2.35;;;;;;;7.38;100.00;102459.19;5033612;28;20032;-42
2022/10/11 03:49:20;;;;;;;15.35;2.75;;;;;;;7.38;100.00;102458.34;5032072;28;20030;-42
2022/10/11 03:51:45;;;;;;;27.80;3.70;;;;;;;7.34;100.00;102464.88;5033372;28;20112;-42
2022/10/11 03:54:11;;;;;;;13.82;2.83;;;;;;;7.29;100.00;102467.91;5033338;28;20061;-41
2022/10/11 03:56:36;;;;;;;22.52;2.90;;;;;;;7.28;100.00;102473.41;5033263;28;20025;-42
2022/10/11 03:59:02;;;;;;;11.85;2.58;;;;;;;7.26;100.00;102469.00;5033363;28;20051;-42
2022/10/11 04:01:27;;;;;;;15.35;2.78;;;;;;;7.26;100.00;102473.53;5032980;28;20034;-42
2022/10/11 04:03:56;;;;;;;12.07;2.33;;;;;;;7.24;100.00;102464.75;5032604;28;20040;-42
2022/10/11 04:06:22;;;;;;;28.30;3.05;;;;;;;7.24;100.00;102473.66;5031592;28;20045;-41
2022/10/11 04:08:47;;;;;;;23.80;2.72;;;;;;;7.25;100.00;102480.72;5032733;28;20095;-41
2022/10/11 04:11:12;;;;;;;20.73;3.00;;;;;;;7.28;100.00;102476.09;5032979;28;20457;-42
2022/10/11 04:13:38;;;;;;;20.75;2.78;;;;;;;7.29;100.00;102483.16;5032954;28;20128;-41
2022/10/11 04:16:03;;;;;;;19.70;3.40;;;;;;;7.31;100.00;102479.38;5032564;28;20029;-42
2022/10/11 04:18:29;;;;;;;15.55;2.47;;;;;;;7.32;100.00;102483.78;5031076;28;20033;-42
2022/10/11 04:20:54;;;;;;;23.67;3.78;;;;;;;7.34;100.00;102480.97;5032762;28;20045;-42
2022/10/11 04:23:19;;;;;;;27.52;3.05;;;;;;;7.34;100.00;102481.81;5032753;28;20041;-43
2022/10/11 04:25:47;;;;;;;19.55;3.22;;;;;;;7.37;100.00;102480.72;5014808;28;20079;-42
2022/10/11 04:28:12;;;;;;;17.02;2.88;;;;;;;7.43;100.00;102490.97;5032720;28;20543;-42
2022/10/11 04:30:37;;;;;;;21.15;2.83;;;;;;;7.48;100.00;102494.13;5030790;28;20060;-43
2022/10/11 04:33:03;;;;;;;23.08;2.75;;;;;;;7.53;100.00;102491.06;5032481;28;20017;-42
2022/10/11 04:35:28;;;;;;;20.13;3.03;;;;;;;7.57;100.00;102492.53;5032554;28;20408;-42
2022/10/11 04:37:53;;;;;;;17.95;2.70;;;;;;;7.62;100.00;102491.19;5030881;28;20033;-41
2022/10/11 04:40:19;;;;;;;17.70;2.85;;;;;;;7.66;100.00;102503.41;5032532;28;20073;-41
2022/10/11 04:42:44;;;;;;;21.35;4.43;;;;;;;7.72;100.00;102501.19;5031997;28;20063;-42
2022/10/11 04:45:10;;;;;;;22.00;3.28;;;;;;;7.73;100.00;102505.56;5031469;28;20025;-42
2022/10/11 04:47:35;;;;;;;23.38;3.60;;;;;;;7.76;100.00;102497.28;5022745;28;20400;-42
2022/10/11 04:50:01;;;;;;;20.70;4.22;;;;;;;7.79;100.00;102499.72;5031551;28;20072;-43
2022/10/11 04:52:26;;;;;;;24.75;4.53;;;;;;;7.77;100.00;102504.38;5031898;28;20117;-44
2022/10/11 04:54:51;;;;;;;18.67;3.90;;;;;;;7.76;100.00;102499.97;5032084;28;20087;-40
2022/10/11 04:57:17;;;;;;;28.95;3.80;;;;;;;7.72;100.00;102495.84;5032146;28;20063;-41
2022/10/11 04:59:42;;;;;;;18.00;4.38;;;;;;;7.69;100.00;102503.16;5030791;28;20030;-42
2022/10/11 05:02:07;;;;;;;27.23;3.83;;;;;;;7.63;100.00;102498.25;5032281;28;20132;-42
2022/10/11 05:04:33;;;;;;;33.42;4.15;;;;;;;7.61;100.00;102507.38;5032114;28;20473;-42
2022/10/11 05:06:58;;;;;;;22.40;3.33;;;;;;;7.56;100.00;102502.41;5031626;28;20392;-43
2022/10/11 05:09:23;;;;;;;20.35;4.28;;;;;;;7.52;100.00;102511.66;5032072;28;20047;-43
2022/10/11 05:11:49;;;;;;;18.85;3.08;;;;;;;7.49;100.00;102511.91;5031890;28;20021;-43
2022/10/11 05:14:14;;;;;;;33.17;4.85;;;;;;;7.47;100.00;102514.69;5030428;28;20032;-42
2022/10/11 05:16:39;;;;;;;27.77;3.40;;;;;;;7.45;100.00;102521.13;5028757;28;20029;-43
2022/10/11 05:19:05;;;;;;;29.70;5.20;;;;;;;7.41;100.00;102514.34;5015741;28;20039;-42
2022/10/11 05:21:30;;;;;;;19.55;3.50;;;;;;;7.37;100.00;102507.50;5032042;28;20489;-40
2022/10/11 05:23:56;;;;;;;24.77;4.63;;;;;;;7.37;100.00;102524.44;5030531;28;20037;-42
2022/10/11 05:26:23;;;;;;;32.88;4.72;;;;;;;7.35;100.00;102520.19;5030895;28;20503;-43
2022/10/11 05:28:48;;;;;;;25.45;6.30;;;;;;;7.32;100.00;102518.59;5031554;28;20029;-42
2022/10/11 05:31:14;;;;;;;30.90;5.10;;;;;;;7.28;100.00;102526.97;5030104;28;20129;-42
2022/10/11 05:33:40;;;;;;;26.92;5.05;;;;;;;7.26;100.00;102522.56;5030662;28;20029;-43
2022/10/11 05:36:06;;;;;;;22.67;4.53;;;;;;;7.24;100.00;102521.88;5032040;28;20033;-41
2022/10/11 05:38:31;;;;;;;24.58;4.20;;;;;;;7.23;100.00;102530.84;5031655;28;20480;-41
2022/10/11 05:41:01;;;;;;;30.25;4.80;;;;;;;7.22;100.00;102525.63;5031790;28;20021;-42
2022/10/11 05:43:27;;;;;;;20.95;4.65;;;;;;;7.21;100.00;102529.25;5031819;28;20026;-43
2022/10/11 05:45:52;;;;;;;25.88;4.25;;;;;;;7.20;100.00;102531.09;5031427;28;20029;-42
2022/10/11 05:48:18;;;;;;;26.33;4.22;;;;;;;7.18;100.00;102527.69;5031630;28;20091;-43
2022/10/11 05:50:43;;;;;;;23.88;4.60;;;;;;;7.19;100.00;102534.75;5031118;28;20495;-43
2022/10/11 05:53:09;;;;;;;29.83;4.80;;;;;;;7.21;100.00;102540.84;5029371;28;20030;-42
2022/10/11 05:55:39;;;;;;;28.25;4.75;;;;;;;7.21;100.00;102551.56;5030438;28;20018;-43
2022/10/11 05:58:04;;;;;;;25.77;4.47;;;;;;;7.21;100.00;102540.84;5030881;28;20562;-42
2022/10/11 06:00:30;;;;;;;43.17;6.85;;;;;;;7.24;100.00;102545.97;5030831;28;20029;-42
2022/10/11 06:02:56;;;;;;;27.15;5.72;;;;;;;7.27;100.00;102550.25;5030809;28;20037;-42
2022/10/11 06:05:21;;;;;;;21.58;4.47;;;;;;;7.28;100.00;102553.75;5029518;28;20133;-42
2022/10/11 06:07:46;;;;;;;25.15;5.38;;;;;;;7.27;100.00;102560.94;5030754;28;20160;-41
2022/10/11 06:10:12;;;;;;;26.20;5.03;;;;;;;7.29;100.00;102563.50;5030284;28;20314;-42
2022/10/11 06:12:37;;;;;;;28.52;4.95;;;;;;;7.31;100.00;102551.69;5030636;28;20452;-42
2022/10/11 06:15:03;;;;;;;30.55;5.05;;;;;;;7.36;100.00;102557.53;5029828;28;20080;-41
2022/10/11 06:17:29;;;;;;;19.92;5.00;;;;;;;7.38;100.00;102557.44;5030556;28;20033;-43
2022/10/11 06:19:54;;;;;;;28.95;5.95;;;;;;;7.41;100.00;102562.56;5031559;28;20646;-43
2022/10/11 06:22:20;;;;;;;30.60;5.88;;;;;;;7.46;100.00;102557.69;5031601;28;20472;-43
2022/10/11 06:24:45;;;;;;;33.83;5.22;;;;;;;7.53;100.00;102563.41;5031524;28;20043;-43
2022/10/11 06:27:11;;;;;;;35.40;5.72;;;;;;;7.64;100.00;102569.66;5030479;28;20030;-42
2022/10/11 06:29:37;;;;;;;36.40;5.72;;;;;;;7.76;100.00;102569.66;5030490;28;20101;-41
2022/10/11 06:32:02;;;;;;;24.80;5.32;;;;;;;7.92;100.00;102572.81;5030586;28;20497;-43
2022/10/11 06:34:27;;;;;;;28.83;5.55;;;;;;;8.05;100.00;102572.69;5030680;28;20107;-42
2022/10/11 06:36:53;;;;;;;30.92;5.15;;;;;;;8.19;100.00;102574.25;5030621;28;20102;-43
2022/10/11 06:39:18;;;;;;;29.17;5.78;;;;;;;8.32;100.00;102581.22;5030619;28;20028;-43
2022/10/11 06:41:44;;;;;;;54.42;8.70;;;;;;;8.39;100.00;102586.94;5030359;28;20030;-42
2022/10/11 06:44:11;;;;;;;41.60;7.10;;;;;;;8.53;100.00;102583.13;5030706;28;20025;-43
2022/10/11 06:46:36;;;;;;;31.05;7.00;;;;;;;8.68;100.00;102583.72;5028867;28;20017;-41
2022/10/11 06:49:02;;;;;;;43.97;6.65;;;;;;;8.83;100.00;102584.28;5030189;28;20384;-42
2022/10/11 06:51:28;;;;;;;53.85;9.15;;;;;;;9.00;100.00;102591.75;5030192;28;20064;-43
2022/10/11 06:53:56;;;;;;;64.63;12.35;;;;;;;9.13;100.00;102583.53;5030209;28;20113;-42
2022/10/11 06:56:22;;;;;;;60.33;11.88;;;;;;;9.22;100.00;102585.44;5029997;28;20033;-42
2022/10/11 06:58:47;;;;;;;73.50;13.63;;;;;;;9.37;100.00;102584.13;5030336;28;20029;-42
2022/10/11 07:01:19;;;;;;;60.95;10.75;;;;;;;9.50;98.94;102591.13;5030248;28;20033;-42
2022/10/11 07:03:44;;;;;;;44.83;8.00;;;;;;;9.65;97.52;102587.97;5029010;28;20029;-42
2022/10/11 07:06:13;;;;;;;44.63;7.07;;;;;;;9.80;96.40;102591.16;5029988;28;20030;-42
2022/10/11 07:08:38;;;;;;;39.67;6.28;;;;;;;9.96;95.52;102595.22;5012373;28;20105;-42
2022/10/11 07:11:06;;;;;;;35.30;5.53;;;;;;;10.01;94.38;102595.66;5030360;28;20368;-42
2022/10/11 07:13:32;;;;;;;50.13;6.25;;;;;;;10.13;92.15;102593.72;5029924;28;20025;-42
2022/10/11 07:16:01;;;;;;;33.00;5.50;;;;;;;10.27;91.87;102591.53;5030109;28;20037;-42
2022/10/11 07:18:27;;;;;;;33.45;6.05;;;;;;;10.41;91.30;102590.28;5029968;28;20037;-42
2022/10/11 07:20:53;;;;;;;29.75;6.15;;;;;;;10.60;91.38;102600.25;5030100;28;20021;-42
2022/10/11 07:23:18;;;;;;;40.72;7.65;;;;;;;10.77;90.93;102602.25;5029869;28;20106;-41
2022/10/11 07:25:44;;;;;;;44.55;7.82;;;;;;;10.88;89.19;102603.13;5029767;28;20404;-42
2022/10/11 07:28:10;;;;;;;42.78;8.02;;;;;;;11.07;89.36;102600.44;5029598;28;20113;-42
2022/10/11 07:30:39;;;;;;;48.08;8.65;;;;;;;11.33;89.09;102610.63;5012052;28;20486;-42
2022/10/11 07:33:05;;;;;;;38.15;9.18;;;;;;;11.59;87.46;102609.03;5029782;28;20022;-43
2022/10/11 07:35:33;;;;;;;41.70;10.50;;;;;;;11.91;85.50;102597.03;5030011;28;20018;-42
2022/10/11 07:37:59;;;;;;;42.22;10.15;;;;;;;12.18;83.96;102609.69;5029848;28;20603;-42
2022/10/11 07:40:24;;;;;;;35.45;7.38;;;;;;;12.38;82.98;102610.47;5028562;28;20120;-42
2022/10/11 07:42:50;;;;;;;36.90;7.45;;;;;;;12.46;80.81;102610.53;5029695;28;20026;-42
2022/10/11 07:45:15;;;;;;;35.08;7.03;;;;;;;12.54;79.53;102608.94;5029685;28;20116;-42
2022/10/11 07:47:45;;;;;;;45.78;8.10;;;;;;;13.00;77.79;102613.28;5029780;28;20025;-42
2022/10/11 07:50:10;;;;;;;47.83;7.82;;;;;;;13.28;76.96;102614.09;5029693;28;20167;-42
2022/10/11 07:52:36;;;;;;;40.15;7.95;;;;;;;13.53;76.33;102614.25;5028667;28;20049;-43
2022/10/11 07:55:01;;;;;;;29.65;7.03;;;;;;;13.29;74.50;102614.94;5029675;28;20433;-42
2022/10/11 07:57:26;;;;;;;33.13;6.50;;;;;;;13.17;75.32;102625.13;5028267;28;20448;-41
2022/10/11 07:59:52;;;;;;;32.13;7.65;;;;;;;13.17;75.14;102622.41;5029727;28;20036;-42
2022/10/11 08:02:17;;;;;;;26.67;7.18;;;;;;;13.56;76.16;102622.06;5028395;28;20021;-42
2022/10/11 08:04:42;;;;;;;42.70;6.47;;;;;;;13.65;74.52;102626.53;5029753;28;20060;-43
2022/10/11 08:07:08;;;;;;;45.28;7.43;;;;;;;14.08;74.11;102624.75;5029370;28;20049;-43
2022/10/11 08:09:33;;;;;;;26.58;5.70;;;;;;;14.54;72.33;102622.63;5029532;28;20087;-42
2022/10/11 08:11:58;;;;;;;29.35;6.43;;;;;;;15.12;68.88;102623.56;5029781;28;20372;-42
2022/10/11 08:14:24;;;;;;;28.65;5.32;;;;;;;15.69;67.22;102631.72;5029450;28;20045;-42
2022/10/11 08:16:49;;;;;;;28.77;5.95;;;;;;;16.02;63.78;102635.19;5030292;28;20041;-41
2022/10/11 08:19:15;;;;;;;37.22;5.90;;;;;;;16.21;63.10;102638.53;5031677;28;20105;-42
2022/10/11 08:21:40;;;;;;;35.65;6.43;;;;;;;16.30;62.51;102634.78;5031636;28;20409;-43
2022/10/11 08:24:06;;;;;;;30.02;5.35;;;;;;;16.65;61.49;102640.72;5032879;28;20112;-41
2022/10/11 08:26:32;;;;;;;28.33;5.78;;;;;;;16.97;61.54;102642.41;5033192;28;20025;-42
2022/10/11 08:29:01;;;;;;;27.63;5.47;;;;;;;17.66;59.79;102645.06;5032919;28;20546;-42
2022/10/11 08:31:26;;;;;;;35.60;5.55;;;;;;;17.72;57.18;102641.63;5032873;28;20445;-42
2022/10/11 08:33:51;;;;;;;38.35;6.35;;;;;;;17.80;57.72;102645.31;5032829;28;20052;-43
2022/10/11 08:36:17;;;;;;;29.73;6.07;;;;;;;18.02;55.04;102649.84;5032820;28;20488;-42
2022/10/11 08:38:42;;;;;;;36.10;6.00;;;;;;;17.20;56.17;102661.47;5032594;28;20112;-43
2022/10/11 08:41:49;;;;;;;32.13;5.00;;;;;;;17.13;55.72;102649.59;5031494;28;20052;-42
2022/10/11 08:44:36;;;;;;;23.88;5.00;;;;;;;16.71;56.97;102652.75;5031844;28;20069;-43
2022/10/11 08:47:08;;;;;;;29.10;5.40;;;;;;;17.23;55.68;102655.66;5027413;28;20057;-42
2022/10/11 08:49:35;;;;;;;32.60;5.47;;;;;;;17.56;56.11;102658.09;5025376;28;20373;-42
2022/10/11 08:52:03;;;;;;;30.75;4.60;;;;;;;17.70;54.62;102668.19;5030297;28;20083;-42
2022/10/11 08:54:43;;;;;;;27.20;4.55;;;;;;;17.48;55.81;102664.47;5031685;28;20468;-43
2022/10/11 08:57:12;;;;;;;35.58;6.00;;;;;;;17.06;57.32;102660.38;5029204;28;20104;-43
2022/10/11 08:59:43;;;;;;;33.03;5.03;;;;;;;16.79;58.07;102659.00;5018813;28;20040;-43
2022/10/11 09:02:15;;;;;;;24.02;4.78;;;;;;;16.66;59.54;102661.44;5032491;28;20074;-43
2022/10/11 09:04:40;;;;;;;31.70;4.75;;;;;;;16.73;59.90;102656.13;5031041;28;20303;-42
2022/10/11 09:07:16;;;;;;;32.80;4.57;;;;;;;16.59;60.51;102664.03;5010525;28;21270;-43
2022/10/11 09:09:48;;;;;;;27.23;4.75;;;;;;;16.58;59.52;102658.75;5000019;28;20048;-45
2022/10/11 09:12:38;;;;;;;18.05;4.75;;;;;;;16.52;58.85;102662.19;5025011;28;20069;-43
2022/10/11 09:15:37;;;;;;;25.35;3.40;;;;;;;16.31;57.10;102660.91;5022254;28;20025;-42
2022/10/11 09:18:44;;;;;;;27.77;3.58;;;;;;;15.94;57.39;102665.09;5026172;28;20037;-43
2022/10/11 09:21:21;;;;;;;18.45;3.05;;;;;;;15.68;59.38;102664.44;5025440;28;20014;-42
2022/10/11 09:23:46;;;;;;;16.58;2.97;;;;;;;15.75;61.06;102657.34;5025326;28;20041;-42
2022/10/11 09:26:32;;;;;;;27.08;4.88;;;;;;;15.70;61.48;102665.13;5025724;28;20064;-42
2022/10/11 09:29:07;;;;;;;21.48;3.13;;;;;;;15.53;60.79;102673.28;5024744;28;20042;-43
2022/10/11 09:31:32;;;;;;;18.02;3.28;;;;;;;15.34;60.64;102673.59;5023914;28;20048;-43
2022/10/11 09:34:04;;;;;;;20.67;2.85;;;;;;;15.27;61.73;102672.56;5025657;28;20393;-42
2022/10/11 09:36:37;;;;;;;18.45;3.30;;;;;;;15.22;61.43;102674.91;5025748;28;20032;-42
2022/10/11 09:39:31;;;;;;;32.35;3.85;;;;;;;15.30;62.04;102678.50;5023423;28;20488;-42
2022/10/11 09:42:00;;;;;;;18.90;3.30;;;;;;;15.33;61.75;102674.63;5023038;28;20029;-42
2022/10/11 09:44:28;;;;;;;27.52;3.45;;;;;;;15.25;61.38;102674.63;5023492;28;20029;-43
2022/10/11 09:46:55;;;;;;;25.23;3.22;;;;;;;15.16;61.97;102679.16;5021285;28;20061;-42
2022/10/11 09:49:24;;;;;;;20.37;2.97;;;;;;;15.09;62.55;102676.28;5023314;28;20044;-42
2022/10/11 09:51:55;;;;;;;28.27;3.85;;;;;;;15.15;63.36;102672.88;5026131;28;20068;-42
2022/10/11 09:54:45;;;;;;;22.77;3.60;;;;;;;15.21;63.49;102673.25;5041402;28;20538;-42
2022/10/11 09:57:26;;;;;;;22.33;3.78;;;;;;;15.32;63.75;102675.63;5023554;28;20025;-41
2022/10/11 10:00:03;;;;;;;23.38;3.35;;;;;;;15.43;62.43;102683.44;5026051;28;20048;-41
2022/10/11 10:02:31;;;;;;;20.65;3.15;;;;;;;15.49;61.44;102677.31;5025640;28;20118;-41
2022/10/11 10:05:00;;;;;;;;;;;;;;;15.61;59.63;102675.09;5025526;28;20033;-43
2022/10/11 10:07:26;;;;;;;14.43;2.33;;;;;;;15.74;58.56;102675.47;5025340;28;20064;-42
2022/10/11 10:09:52;;;;;;;18.63;2.60;;;;;;;15.80;58.81;102677.50;5025976;28;20040;-42
2022/10/11 10:12:23;;;;;;;17.73;2.47;;;;;;;15.69;57.96;102677.88;5025462;28;20396;-41
2022/10/11 10:15:17;;;;;;;16.02;2.33;;;;;;;15.69;59.32;102674.28;5024161;28;20486;-41
2022/10/11 10:17:49;;;;;;;18.27;2.25;;;;;;;15.70;57.91;102676.84;5023951;28;20029;-43
2022/10/11 10:20:30;;;;;;;21.13;2.80;;;;;;;15.52;58.87;102676.97;5024337;28;20099;-42
2022/10/11 10:22:57;;;;;;;16.77;2.63;;;;;;;15.28;59.24;102675.13;5024257;28;20041;-41
2022/10/11 10:25:33;;;;;;;26.13;2.95;;;;;;;15.23;60.40;102669.34;5007500;28;20087;-42
2022/10/11 10:28:01;;;;;;;18.17;3.35;;;;;;;15.34;61.41;102673.59;5023230;28;20234;-42
2022/10/11 10:30:27;;;;;;;19.63;3.13;;;;;;;15.32;60.46;102672.91;5023487;28;20021;-42
2022/10/11 10:33:10;;;;;;;15.75;2.20;;;;;;;15.32;61.16;102675.63;5040310;28;20118;-42
2022/10/11 10:35:55;;;;;;;19.40;2.88;;;;;;;15.27;61.51;102667.13;5022780;28;20049;-43
2022/10/11 10:38:31;;;;;;;26.75;2.92;;;;;;;15.47;61.22;102663.06;5024918;28;20077;-43
2022/10/11 10:41:00;;;;;;;21.95;2.53;;;;;;;15.62;61.01;102660.53;5023076;28;20499;-42
2022/10/11 10:43:30;;;;;;;16.85;2.20;;;;;;;15.84;60.71;102659.00;5006541;28;20453;-42
2022/10/11 10:46:07;;;;;;;22.45;3.55;;;;;;;15.61;60.62;102652.53;5021866;28;20380;-43
2022/10/11 10:48:49;;;;;;;19.55;3.05;;;;;;;15.68;61.03;102664.44;5022515;28;20567;-41
2022/10/11 10:51:23;;;;;;;27.23;2.75;;;;;;;15.62;59.65;102649.69;5023634;28;20026;-42
2022/10/11 10:54:14;;;;;;;19.95;3.05;;;;;;;15.45;60.87;102658.84;5023306;28;20041;-41
2022/10/11 10:56:47;;;;;;;26.42;2.85;;;;;;;15.63;61.27;102661.38;5017363;28;20029;-42
2022/10/11 10:59:31;;;;;;;27.40;2.92;;;;;;;15.32;61.13;102653.91;5039437;28;20322;-42
2022/10/11 11:02:07;;;;;;;17.90;2.72;;;;;;;15.16;61.86;102654.75;5024190;28;20034;-42
2022/10/11 11:04:33;;;;;;;15.10;3.08;;;;;;;15.29;63.82;102648.81;5039105;28;20060;-42
2022/10/11 11:07:34;;;;;;;16.73;2.88;;;;;;;15.41;63.99;102646.63;5023123;28;20562;-41
2022/10/11 11:10:06;;;;;;;21.13;3.47;;;;;;;15.36;62.77;102656.13;5002953;28;20029;-44
2022/10/11 11:12:40;;;;;;;23.55;2.88;;;;;;;15.39;63.45;102654.09;5023749;28;20084;-44
2022/10/11 11:15:19;;;;;;;21.80;2.95;;;;;;;15.37;64.20;102657.81;5023836;28;20053;-42
2022/10/11 11:18:02;;;;;;;21.30;2.90;;;;;;;15.03;62.90;102649.81;5026430;28;20083;-42
2022/10/11 11:20:44;;;;;;;24.98;3.28;;;;;;;14.98;62.95;102654.91;5026410;28;20037;-42
2022/10/11 11:23:22;;;;;;;24.73;3.28;;;;;;;14.78;62.95;102651.66;5024270;28;20026;-41
2022/10/11 11:25:51;;;;;;;20.70;2.50;;;;;;;14.76;64.46;102647.41;5024130;28;20061;-42
2022/10/11 11:28:38;;;;;;;19.83;3.33;;;;;;;14.83;63.44;102645.72;5022575;28;20327;-42
2022/10/11 11:31:20;;;;;;;22.02;2.97;;;;;;;14.92;64.32;102642.84;5024235;28;20028;-43